sensor_id;sensor_type;location;lat;lon;timestamp;P1;durP1;ratioP1;P2;durP2;ratioP2
10063;SDS011;5071;52.360;13.134;2022-07-21T00:03:01;5.10;;;3.70;;
10063;SDS011;5071;52.360;13.134;2022-07-21T00:08:04;5.25;;;4.00;;
10063;SDS011;5071;52.360;13.134;2022-07-21T00:13:07;4.43;;;3.65;;
10063;SDS011;5071;52.360;13.134;2022-07-21T00:18:09;6.90;;;4.10;;
10063;SDS011;5071;52.360;13.134;2022-07-21T00:23:12;5.70;;;3.25;;
10063;SDS011;5071;52.360;13.134;2022-07-21T00:28:14;5.77;;;3.87;;
10063;SDS011;5071;52.360;13.134;2022-07-21T00:33:16;4.27;;;3.87;;
10063;SDS011;5071;52.360;13.134;2022-07-21T00:38:19;4.97;;;3.30;;
10063;SDS011;5071;52.360;13.134;2022-07-21T00:43:21;4.22;;;3.75;;
10063;SDS011;5071;52.360;13.134;2022-07-21T00:48:22;6.17;;;4.03;;
10063;SDS011;5071;52.360;13.134;2022-07-21T00:53:26;3.93;;;3.37;;
10063;SDS011;5071;52.360;13.134;2022-07-21T00:58:28;4.82;;;3.42;;
10063;SDS011;5071;52.360;13.134;2022-07-21T01:03:29;3.33;;;3.00;;
10063;SDS011;5071;52.360;13.134;2022-07-21T01:08:33;5.10;;;3.83;;
10063;SDS011;5071;52.360;13.134;2022-07-21T01:13:35;5.20;;;3.80;;
10063;SDS011;5071;52.360;13.134;2022-07-21T01:18:36;6.10;;;3.90;;
10063;SDS011;5071;52.360;13.134;2022-07-21T01:23:40;3.80;;;3.40;;
10063;SDS011;5071;52.360;13.134;2022-07-21T01:28:42;5.32;;;3.13;;
10063;SDS011;5071;52.360;13.134;2022-07-21T01:33:43;6.20;;;3.77;;
10063;SDS011;5071;52.360;13.134;2022-07-21T01:38:47;5.97;;;3.80;;
10063;SDS011;5071;52.360;13.134;2022-07-21T01:43:49;4.85;;;3.17;;
10063;SDS011;5071;52.360;13.134;2022-07-21T01:48:51;5.57;;;3.13;;
10063;SDS011;5071;52.360;13.134;2022-07-21T01:53:55;4.47;;;3.42;;
10063;SDS011;5071;52.360;13.134;2022-07-21T01:58:57;11.07;;;3.30;;
10063;SDS011;5071;52.360;13.134;2022-07-21T02:03:59;3.97;;;2.92;;
10063;SDS011;5071;52.360;13.134;2022-07-21T02:09:06;4.00;;;3.40;;
10063;SDS011;5071;52.360;13.134;2022-07-21T02:14:08;3.85;;;3.15;;
10063;SDS011;5071;52.360;13.134;2022-07-21T02:19:10;5.63;;;3.30;;
10063;SDS011;5071;52.360;13.134;2022-07-21T02:24:13;4.10;;;3.20;;
10063;SDS011;5071;52.360;13.134;2022-07-21T02:29:15;4.18;;;3.53;;
10063;SDS011;5071;52.360;13.134;2022-07-21T02:34:17;4.88;;;3.13;;
10063;SDS011;5071;52.360;13.134;2022-07-21T02:39:20;6.35;;;3.08;;
10063;SDS011;5071;52.360;13.134;2022-07-21T02:44:22;6.13;;;3.28;;
10063;SDS011;5071;52.360;13.134;2022-07-21T02:49:24;3.28;;;3.00;;
10063;SDS011;5071;52.360;13.134;2022-07-21T02:54:28;4.45;;;3.22;;
10063;SDS011;5071;52.360;13.134;2022-07-21T02:59:31;7.07;;;3.22;;
10063;SDS011;5071;52.360;13.134;2022-07-21T03:04:33;3.40;;;3.10;;
10063;SDS011;5071;52.360;13.134;2022-07-21T03:09:36;5.22;;;3.25;;
10063;SDS011;5071;52.360;13.134;2022-07-21T03:14:38;4.97;;;3.25;;
10063;SDS011;5071;52.360;13.134;2022-07-21T03:19:40;4.32;;;3.03;;
10063;SDS011;5071;52.360;13.134;2022-07-21T03:24:43;4.63;;;3.55;;
10063;SDS011;5071;52.360;13.134;2022-07-21T03:29:45;5.77;;;3.57;;
10063;SDS011;5071;52.360;13.134;2022-07-21T03:34:47;4.63;;;3.43;;
10063;SDS011;5071;52.360;13.134;2022-07-21T03:39:51;3.57;;;3.13;;
10063;SDS011;5071;52.360;13.134;2022-07-21T03:44:52;3.75;;;3.08;;
10063;SDS011;5071;52.360;13.134;2022-07-21T03:49:54;4.45;;;3.00;;
10063;SDS011;5071;52.360;13.134;2022-07-21T03:54:57;4.85;;;3.05;;
10063;SDS011;5071;52.360;13.134;2022-07-21T03:59:59;3.70;;;3.30;;
10063;SDS011;5071;52.360;13.134;2022-07-21T04:05:01;6.28;;;3.60;;
10063;SDS011;5071;52.360;13.134;2022-07-21T04:10:06;4.07;;;3.08;;
10063;SDS011;5071;52.360;13.134;2022-07-21T04:15:09;4.03;;;3.42;;
10063;SDS011;5071;52.360;13.134;2022-07-21T04:20:12;7.80;;;4.23;;
10063;SDS011;5071;52.360;13.134;2022-07-21T04:25:16;6.27;;;4.27;;
10063;SDS011;5071;52.360;13.134;2022-07-21T04:30:21;6.40;;;5.25;;
10063;SDS011;5071;52.360;13.134;2022-07-21T04:35:24;9.57;;;7.80;;
10063;SDS011;5071;52.360;13.134;2022-07-21T04:40:27;12.10;;;8.70;;
10063;SDS011;5071;52.360;13.134;2022-07-21T04:45:29;15.07;;;8.63;;
10063;SDS011;5071;52.360;13.134;2022-07-21T04:50:31;11.93;;;9.70;;
10063;SDS011;5071;52.360;13.134;2022-07-21T04:55:34;10.60;;;8.65;;
10063;SDS011;5071;52.360;13.134;2022-07-21T05:00:36;11.93;;;9.48;;
10063;SDS011;5071;52.360;13.134;2022-07-21T05:05:38;13.38;;;9.10;;
10063;SDS011;5071;52.360;13.134;2022-07-21T05:10:42;10.82;;;9.80;;
10063;SDS011;5071;52.360;13.134;2022-07-21T05:15:44;10.98;;;8.95;;
10063;SDS011;5071;52.360;13.134;2022-07-21T05:20:46;14.68;;;10.40;;
10063;SDS011;5071;52.360;13.134;2022-07-21T05:25:49;9.82;;;8.82;;
10063;SDS011;5071;52.360;13.134;2022-07-21T05:30:51;10.75;;;9.05;;
10063;SDS011;5071;52.360;13.134;2022-07-21T05:35:53;11.35;;;9.18;;
10063;SDS011;5071;52.360;13.134;2022-07-21T05:40:56;11.00;;;8.60;;
10063;SDS011;5071;52.360;13.134;2022-07-21T05:45:58;10.38;;;8.50;;
10063;SDS011;5071;52.360;13.134;2022-07-21T05:51:00;11.23;;;8.80;;
10063;SDS011;5071;52.360;13.134;2022-07-21T05:56:04;8.77;;;7.82;;
10063;SDS011;5071;52.360;13.134;2022-07-21T06:01:06;8.70;;;7.75;;
10063;SDS011;5071;52.360;13.134;2022-07-21T06:06:08;9.10;;;7.57;;
10063;SDS011;5071;52.360;13.134;2022-07-21T06:11:13;12.18;;;7.78;;
10063;SDS011;5071;52.360;13.134;2022-07-21T06:16:17;8.40;;;7.60;;
10063;SDS011;5071;52.360;13.134;2022-07-21T06:21:19;9.48;;;7.70;;
10063;SDS011;5071;52.360;13.134;2022-07-21T06:26:22;11.88;;;7.65;;
10063;SDS011;5071;52.360;13.134;2022-07-21T06:31:24;7.50;;;6.80;;
10063;SDS011;5071;52.360;13.134;2022-07-21T06:36:26;9.60;;;7.40;;
10063;SDS011;5071;52.360;13.134;2022-07-21T06:41:29;8.00;;;6.70;;
10063;SDS011;5071;52.360;13.134;2022-07-21T06:46:31;8.00;;;6.50;;
10063;SDS011;5071;52.360;13.134;2022-07-21T06:51:33;7.57;;;6.35;;
10063;SDS011;5071;52.360;13.134;2022-07-21T06:56:36;7.38;;;6.72;;
10063;SDS011;5071;52.360;13.134;2022-07-21T07:01:38;9.40;;;7.00;;
10063;SDS011;5071;52.360;13.134;2022-07-21T07:06:40;6.80;;;6.10;;
10063;SDS011;5071;52.360;13.134;2022-07-21T07:11:44;11.27;;;7.32;;
10063;SDS011;5071;52.360;13.134;2022-07-21T07:17:06;6.63;;;6.00;;
10063;SDS011;5071;52.360;13.134;2022-07-21T07:22:08;8.50;;;6.80;;
10063;SDS011;5071;52.360;13.134;2022-07-21T07:27:11;8.27;;;6.93;;
10063;SDS011;5071;52.360;13.134;2022-07-21T07:32:13;8.25;;;7.10;;
10063;SDS011;5071;52.360;13.134;2022-07-21T07:37:15;7.97;;;6.50;;
10063;SDS011;5071;52.360;13.134;2022-07-21T07:42:19;9.35;;;7.40;;
10063;SDS011;5071;52.360;13.134;2022-07-21T07:47:21;8.65;;;7.68;;
10063;SDS011;5071;52.360;13.134;2022-07-21T07:52:24;11.07;;;7.05;;
10063;SDS011;5071;52.360;13.134;2022-07-21T07:57:28;7.88;;;7.05;;
10063;SDS011;5071;52.360;13.134;2022-07-21T08:02:30;7.60;;;6.80;;
10063;SDS011;5071;52.360;13.134;2022-07-21T08:07:32;9.73;;;7.18;;
10063;SDS011;5071;52.360;13.134;2022-07-21T08:12:35;7.28;;;6.07;;
10063;SDS011;5071;52.360;13.134;2022-07-21T08:17:39;11.50;;;7.63;;
10063;SDS011;5071;52.360;13.134;2022-07-21T08:22:41;8.70;;;7.65;;
10063;SDS011;5071;52.360;13.134;2022-07-21T08:27:44;7.28;;;6.32;;
10063;SDS011;5071;52.360;13.134;2022-07-21T08:32:46;7.13;;;5.93;;
10063;SDS011;5071;52.360;13.134;2022-07-21T08:37:52;6.50;;;5.43;;
10063;SDS011;5071;52.360;13.134;2022-07-21T08:42:59;5.95;;;5.35;;
10063;SDS011;5071;52.360;13.134;2022-07-21T08:48:02;6.63;;;5.63;;
10063;SDS011;5071;52.360;13.134;2022-07-21T08:53:05;7.15;;;5.72;;
10063;SDS011;5071;52.360;13.134;2022-07-21T08:58:09;5.97;;;5.38;;
10063;SDS011;5071;52.360;13.134;2022-07-21T09:03:15;8.05;;;5.78;;
10063;SDS011;5071;52.360;13.134;2022-07-21T09:08:18;6.55;;;5.75;;
10063;SDS011;5071;52.360;13.134;2022-07-21T09:13:31;5.28;;;4.13;;
10063;SDS011;5071;52.360;13.134;2022-07-21T09:18:34;5.38;;;4.35;;
10063;SDS011;5071;52.360;13.134;2022-07-21T09:23:47;4.50;;;4.10;;
10063;SDS011;5071;52.360;13.134;2022-07-21T09:28:51;4.10;;;3.70;;
10063;SDS011;5071;52.360;13.134;2022-07-21T09:33:53;4.57;;;4.18;;
10063;SDS011;5071;52.360;13.134;2022-07-21T09:38:58;4.07;;;3.55;;
10063;SDS011;5071;52.360;13.134;2022-07-21T09:44:01;3.40;;;3.10;;
10063;SDS011;5071;52.360;13.134;2022-07-21T09:49:03;3.83;;;3.17;;
10063;SDS011;5071;52.360;13.134;2022-07-21T09:54:24;3.95;;;2.90;;
10063;SDS011;5071;52.360;13.134;2022-07-21T09:59:27;5.30;;;3.22;;
10063;SDS011;5071;52.360;13.134;2022-07-21T10:04:51;3.85;;;3.47;;
10063;SDS011;5071;52.360;13.134;2022-07-21T10:10:08;3.92;;;3.08;;
10063;SDS011;5071;52.360;13.134;2022-07-21T10:15:12;4.82;;;3.38;;
10063;SDS011;5071;52.360;13.134;2022-07-21T10:20:16;3.38;;;3.00;;
10063;SDS011;5071;52.360;13.134;2022-07-21T10:25:24;3.55;;;2.97;;
10063;SDS011;5071;52.360;13.134;2022-07-21T10:30:37;5.00;;;3.50;;
10063;SDS011;5071;52.360;13.134;2022-07-21T10:35:40;4.43;;;3.05;;
10063;SDS011;5071;52.360;13.134;2022-07-21T10:40:46;4.03;;;3.70;;
10063;SDS011;5071;52.360;13.134;2022-07-21T10:45:49;4.90;;;3.42;;
10063;SDS011;5071;52.360;13.134;2022-07-21T10:50:52;4.82;;;3.58;;
10063;SDS011;5071;52.360;13.134;2022-07-21T10:55:59;6.22;;;3.55;;
10063;SDS011;5071;52.360;13.134;2022-07-21T11:01:04;4.63;;;3.15;;
10063;SDS011;5071;52.360;13.134;2022-07-21T11:06:12;6.90;;;3.85;;
10063;SDS011;5071;52.360;13.134;2022-07-21T11:11:17;9.43;;;4.32;;
10063;SDS011;5071;52.360;13.134;2022-07-21T11:16:22;5.30;;;3.40;;
10063;SDS011;5071;52.360;13.134;2022-07-21T11:21:24;3.88;;;3.08;;
10063;SDS011;5071;52.360;13.134;2022-07-21T11:26:26;6.63;;;3.67;;
10063;SDS011;5071;52.360;13.134;2022-07-21T11:31:30;4.93;;;3.47;;
10063;SDS011;5071;52.360;13.134;2022-07-21T11:36:32;4.13;;;3.55;;
10063;SDS011;5071;52.360;13.134;2022-07-21T11:41:34;4.93;;;3.88;;
10063;SDS011;5071;52.360;13.134;2022-07-21T11:46:48;5.20;;;3.53;;
10063;SDS011;5071;52.360;13.134;2022-07-21T11:51:52;4.15;;;3.80;;
10063;SDS011;5071;52.360;13.134;2022-07-21T11:56:56;5.80;;;3.97;;
10063;SDS011;5071;52.360;13.134;2022-07-21T12:02:04;5.07;;;4.40;;
10063;SDS011;5071;52.360;13.134;2022-07-21T12:07:15;4.88;;;4.32;;
10063;SDS011;5071;52.360;13.134;2022-07-21T12:12:32;5.20;;;3.83;;
10063;SDS011;5071;52.360;13.134;2022-07-21T12:17:37;4.82;;;3.28;;
10063;SDS011;5071;52.360;13.134;2022-07-21T12:22:41;3.67;;;3.38;;
10063;SDS011;5071;52.360;13.134;2022-07-21T12:28:04;3.25;;;3.00;;
10063;SDS011;5071;52.360;13.134;2022-07-21T12:33:09;4.78;;;3.60;;
10063;SDS011;5071;52.360;13.134;2022-07-21T12:38:13;5.40;;;3.65;;
10063;SDS011;5071;52.360;13.134;2022-07-21T12:43:17;5.68;;;3.90;;
10063;SDS011;5071;52.360;13.134;2022-07-21T12:48:23;3.78;;;3.33;;
10063;SDS011;5071;52.360;13.134;2022-07-21T12:53:26;3.90;;;3.50;;
10063;SDS011;5071;52.360;13.134;2022-07-21T12:58:29;5.45;;;4.10;;
10063;SDS011;5071;52.360;13.134;2022-07-21T13:03:32;4.38;;;3.63;;
10063;SDS011;5071;52.360;13.134;2022-07-21T13:08:36;4.65;;;3.92;;
10063;SDS011;5071;52.360;13.134;2022-07-21T13:13:38;4.80;;;3.47;;
10063;SDS011;5071;52.360;13.134;2022-07-21T13:18:42;5.95;;;3.88;;
10063;SDS011;5071;52.360;13.134;2022-07-21T13:23:44;3.38;;;3.08;;
10063;SDS011;5071;52.360;13.134;2022-07-21T13:28:48;3.85;;;3.42;;
10063;SDS011;5071;52.360;13.134;2022-07-21T13:33:52;4.78;;;3.83;;
10063;SDS011;5071;52.360;13.134;2022-07-21T13:38:55;4.97;;;4.47;;
10063;SDS011;5071;52.360;13.134;2022-07-21T13:44:17;4.82;;;4.32;;
10063;SDS011;5071;52.360;13.134;2022-07-21T13:49:24;4.65;;;4.13;;
10063;SDS011;5071;52.360;13.134;2022-07-21T13:54:26;5.20;;;4.65;;
10063;SDS011;5071;52.360;13.134;2022-07-21T13:59:33;6.13;;;4.45;;
10063;SDS011;5071;52.360;13.134;2022-07-21T14:04:37;5.40;;;4.57;;
10063;SDS011;5071;52.360;13.134;2022-07-21T14:09:39;7.20;;;4.63;;
10063;SDS011;5071;52.360;13.134;2022-07-21T14:14:41;5.10;;;4.05;;
10063;SDS011;5071;52.360;13.134;2022-07-21T14:19:45;4.97;;;4.10;;
10063;SDS011;5071;52.360;13.134;2022-07-21T14:24:47;5.80;;;4.35;;
10063;SDS011;5071;52.360;13.134;2022-07-21T14:29:49;5.32;;;4.35;;
10063;SDS011;5071;52.360;13.134;2022-07-21T14:34:53;4.85;;;4.38;;
10063;SDS011;5071;52.360;13.134;2022-07-21T14:39:54;4.97;;;4.22;;
10063;SDS011;5071;52.360;13.134;2022-07-21T14:44:56;4.97;;;4.45;;
10063;SDS011;5071;52.360;13.134;2022-07-21T14:50:00;5.65;;;4.50;;
10063;SDS011;5071;52.360;13.134;2022-07-21T14:55:02;5.13;;;4.60;;
10063;SDS011;5071;52.360;13.134;2022-07-21T15:00:06;5.57;;;4.53;;
10063;SDS011;5071;52.360;13.134;2022-07-21T15:05:14;6.13;;;4.28;;
10063;SDS011;5071;52.360;13.134;2022-07-21T15:10:16;6.55;;;4.65;;
10063;SDS011;5071;52.360;13.134;2022-07-21T15:15:18;5.05;;;4.45;;
10063;SDS011;5071;52.360;13.134;2022-07-21T15:20:21;7.80;;;4.82;;
10063;SDS011;5071;52.360;13.134;2022-07-21T15:25:24;6.43;;;4.70;;
10063;SDS011;5071;52.360;13.134;2022-07-21T15:30:27;7.25;;;4.47;;
10063;SDS011;5071;52.360;13.134;2022-07-21T15:35:30;6.22;;;4.93;;
10063;SDS011;5071;52.360;13.134;2022-07-21T15:40:32;5.72;;;5.07;;
10063;SDS011;5071;52.360;13.134;2022-07-21T15:45:34;8.23;;;4.50;;
10063;SDS011;5071;52.360;13.134;2022-07-21T15:50:38;6.15;;;5.30;;
10063;SDS011;5071;52.360;13.134;2022-07-21T15:55:40;6.63;;;6.03;;
10063;SDS011;5071;52.360;13.134;2022-07-21T16:00:49;10.57;;;5.30;;
10063;SDS011;5071;52.360;13.134;2022-07-21T16:05:52;5.13;;;4.63;;
10063;SDS011;5071;52.360;13.134;2022-07-21T16:10:54;5.90;;;5.05;;
10063;SDS011;5071;52.360;13.134;2022-07-21T16:15:56;7.43;;;5.43;;
10063;SDS011;5071;52.360;13.134;2022-07-21T16:20:59;5.57;;;5.07;;
10063;SDS011;5071;52.360;13.134;2022-07-21T16:26:01;5.03;;;4.63;;
10063;SDS011;5071;52.360;13.134;2022-07-21T16:31:03;5.75;;;5.22;;
10063;SDS011;5071;52.360;13.134;2022-07-21T16:36:06;5.07;;;4.65;;
10063;SDS011;5071;52.360;13.134;2022-07-21T16:41:08;4.85;;;4.43;;
10063;SDS011;5071;52.360;13.134;2022-07-21T16:46:10;7.40;;;4.70;;
10063;SDS011;5071;52.360;13.134;2022-07-21T16:51:14;5.30;;;4.80;;
10063;SDS011;5071;52.360;13.134;2022-07-21T16:56:16;6.85;;;6.15;;
10063;SDS011;5071;52.360;13.134;2022-07-21T17:01:18;6.90;;;5.22;;
10063;SDS011;5071;52.360;13.134;2022-07-21T17:06:21;5.28;;;4.78;;
10063;SDS011;5071;52.360;13.134;2022-07-21T17:11:23;5.97;;;4.95;;
10063;SDS011;5071;52.360;13.134;2022-07-21T17:16:25;5.55;;;4.90;;
10063;SDS011;5071;52.360;13.134;2022-07-21T17:21:28;5.32;;;4.55;;
10063;SDS011;5071;52.360;13.134;2022-07-21T17:26:30;5.47;;;4.93;;
10063;SDS011;5071;52.360;13.134;2022-07-21T17:31:32;5.10;;;4.60;;
10063;SDS011;5071;52.360;13.134;2022-07-21T17:36:36;5.70;;;4.82;;
10063;SDS011;5071;52.360;13.134;2022-07-21T17:41:38;5.97;;;4.78;;
10063;SDS011;5071;52.360;13.134;2022-07-21T17:46:40;5.38;;;4.57;;
10063;SDS011;5071;52.360;13.134;2022-07-21T17:51:43;6.43;;;5.18;;
10063;SDS011;5071;52.360;13.134;2022-07-21T17:56:47;5.43;;;4.75;;
10063;SDS011;5071;52.360;13.134;2022-07-21T18:01:49;7.88;;;4.82;;
10063;SDS011;5071;52.360;13.134;2022-07-21T18:06:52;5.55;;;4.78;;
10063;SDS011;5071;52.360;13.134;2022-07-21T18:11:54;5.25;;;4.55;;
10063;SDS011;5071;52.360;13.134;2022-07-21T18:16:56;7.50;;;4.93;;
10063;SDS011;5071;52.360;13.134;2022-07-21T18:22:00;5.85;;;4.40;;
10063;SDS011;5071;52.360;13.134;2022-07-21T18:27:04;5.00;;;4.50;;
10063;SDS011;5071;52.360;13.134;2022-07-21T18:32:06;5.07;;;4.50;;
10063;SDS011;5071;52.360;13.134;2022-07-21T18:37:09;4.47;;;3.20;;
10063;SDS011;5071;52.360;13.134;2022-07-21T18:42:12;4.03;;;3.50;;
10063;SDS011;5071;52.360;13.134;2022-07-21T18:47:14;5.75;;;3.97;;
10063;SDS011;5071;52.360;13.134;2022-07-21T18:52:17;6.40;;;3.95;;
10063;SDS011;5071;52.360;13.134;2022-07-21T18:57:19;4.60;;;3.60;;
10063;SDS011;5071;52.360;13.134;2022-07-21T19:02:21;4.90;;;4.07;;
10063;SDS011;5071;52.360;13.134;2022-07-21T19:07:24;4.27;;;3.80;;
10063;SDS011;5071;52.360;13.134;2022-07-21T19:12:46;6.03;;;4.28;;
10063;SDS011;5071;52.360;13.134;2022-07-21T19:17:48;5.67;;;4.17;;
10063;SDS011;5071;52.360;13.134;2022-07-21T19:22:53;5.88;;;4.28;;
10063;SDS011;5071;52.360;13.134;2022-07-21T19:27:58;5.07;;;4.13;;
10063;SDS011;5071;52.360;13.134;2022-07-21T19:33:03;6.00;;;4.20;;
10063;SDS011;5071;52.360;13.134;2022-07-21T19:38:08;4.50;;;4.10;;
10063;SDS011;5071;52.360;13.134;2022-07-21T19:43:10;4.93;;;4.43;;
10063;SDS011;5071;52.360;13.134;2022-07-21T19:48:13;4.87;;;4.33;;
10063;SDS011;5071;52.360;13.134;2022-07-21T19:53:20;7.83;;;4.67;;
10063;SDS011;5071;52.360;13.134;2022-07-21T19:58:23;5.27;;;4.77;;
10063;SDS011;5071;52.360;13.134;2022-07-21T20:03:24;4.37;;;3.90;;
10063;SDS011;5071;52.360;13.134;2022-07-21T20:08:28;5.07;;;4.47;;
10063;SDS011;5071;52.360;13.134;2022-07-21T20:13:30;5.50;;;4.33;;
10063;SDS011;5071;52.360;13.134;2022-07-21T20:18:32;8.13;;;5.80;;
10063;SDS011;5071;52.360;13.134;2022-07-21T20:23:35;6.50;;;5.40;;
10063;SDS011;5071;52.360;13.134;2022-07-21T20:28:38;7.63;;;5.20;;
10063;SDS011;5071;52.360;13.134;2022-07-21T20:33:40;8.20;;;5.27;;
10063;SDS011;5071;52.360;13.134;2022-07-21T20:38:43;6.73;;;5.00;;
10063;SDS011;5071;52.360;13.134;2022-07-21T20:43:45;6.13;;;4.70;;
10063;SDS011;5071;52.360;13.134;2022-07-21T20:48:47;7.27;;;4.67;;
10063;SDS011;5071;52.360;13.134;2022-07-21T20:53:54;5.13;;;4.63;;
10063;SDS011;5071;52.360;13.134;2022-07-21T20:58:56;5.53;;;4.77;;
10063;SDS011;5071;52.360;13.134;2022-07-21T21:03:59;5.97;;;4.77;;
10063;SDS011;5071;52.360;13.134;2022-07-21T21:09:02;5.60;;;4.87;;
10063;SDS011;5071;52.360;13.134;2022-07-21T21:14:04;5.47;;;4.80;;
10063;SDS011;5071;52.360;13.134;2022-07-21T21:19:07;6.90;;;5.53;;
10063;SDS011;5071;52.360;13.134;2022-07-21T21:24:10;7.53;;;5.77;;
10063;SDS011;5071;52.360;13.134;2022-07-21T21:29:12;8.87;;;5.63;;
10063;SDS011;5071;52.360;13.134;2022-07-21T21:34:14;6.53;;;5.87;;
10063;SDS011;5071;52.360;13.134;2022-07-21T21:39:17;5.87;;;5.27;;
10063;SDS011;5071;52.360;13.134;2022-07-21T21:44:19;5.77;;;5.20;;
10063;SDS011;5071;52.360;13.134;2022-07-21T21:49:22;6.87;;;5.37;;
10063;SDS011;5071;52.360;13.134;2022-07-21T21:54:25;6.93;;;5.10;;
10063;SDS011;5071;52.360;13.134;2022-07-21T21:59:27;6.03;;;5.43;;
10063;SDS011;5071;52.360;13.134;2022-07-21T22:04:29;8.67;;;5.70;;
10063;SDS011;5071;52.360;13.134;2022-07-21T22:09:32;6.53;;;5.77;;
10063;SDS011;5071;52.360;13.134;2022-07-21T22:14:34;7.53;;;5.80;;
10063;SDS011;5071;52.360;13.134;2022-07-21T22:19:37;7.57;;;4.93;;
10063;SDS011;5071;52.360;13.134;2022-07-21T22:24:40;6.83;;;5.83;;
10063;SDS011;5071;52.360;13.134;2022-07-21T22:29:42;5.73;;;5.13;;
10063;SDS011;5071;52.360;13.134;2022-07-21T22:34:45;7.07;;;5.53;;
10063;SDS011;5071;52.360;13.134;2022-07-21T22:39:49;8.03;;;4.97;;
10063;SDS011;5071;52.360;13.134;2022-07-21T22:44:51;5.60;;;4.77;;
10063;SDS011;5071;52.360;13.134;2022-07-21T22:49:53;5.03;;;4.53;;
10063;SDS011;5071;52.360;13.134;2022-07-21T22:54:57;5.30;;;4.80;;
10063;SDS011;5071;52.360;13.134;2022-07-21T22:59:59;5.30;;;4.80;;
10063;SDS011;5071;52.360;13.134;2022-07-21T23:05:01;7.17;;;5.23;;
10063;SDS011;5071;52.360;13.134;2022-07-21T23:10:05;9.83;;;5.90;;
10063;SDS011;5071;52.360;13.134;2022-07-21T23:15:08;7.57;;;5.73;;
10063;SDS011;5071;52.360;13.134;2022-07-21T23:20:10;6.80;;;6.17;;
10063;SDS011;5071;52.360;13.134;2022-07-21T23:25:14;8.10;;;6.30;;
10063;SDS011;5071;52.360;13.134;2022-07-21T23:30:16;8.07;;;5.80;;
10063;SDS011;5071;52.360;13.134;2022-07-21T23:35:18;6.03;;;5.43;;
10063;SDS011;5071;52.360;13.134;2022-07-21T23:40:21;6.70;;;6.00;;
10063;SDS011;5071;52.360;13.134;2022-07-21T23:45:23;7.63;;;5.97;;
10063;SDS011;5071;52.360;13.134;2022-07-21T23:50:26;7.63;;;5.87;;
10063;SDS011;5071;52.360;13.134;2022-07-21T23:55:29;7.23;;;5.40;;
